Архив погоды в Великом Новгороде

Метеограмма Великий Новгород
Понедельник, 25 Июня
Время местн. Темп Ветер Видим Явления Облачность нижн/средн/верх Атм. давл. Влжн Точка росы ВНГО R Сост. почвы Tg s
Напр Скр Прв ур.ст ур.м изм
03:00 +11.4° Ю,Ю-З 5 10 10 км - незначительная облачность 757 759 +1.1 77% +7.6° 1 км - - - -
00:00 +13.5° Ю 5 12 10 км - облачно с прояснениями 756 758 +1.4 74% +8.9° 1 км - - - -
Воскресенье, 24 Июня
Время местн. Темп Ветер Видим Явления Облачность нижн/средн/верх Атм. давл. Влжн Точка росы ВНГО R Сост. почвы Tg s
Напр Скр Прв ур.ст ур.м изм
21:00 +15.5° Ю 6 11 20 км облака рассеиваются {ливневые осадки} облачно с прояснениями 755 757 +1.7 67% +9.5° 1 км 4 - - -
18:00 +17.5° Ю,Ю-З 8 12 20 км облака развиваются {ливневые осадки} облачно с прояснениями 753 755 +1.1 73% +12.6° 1 км - - - -
15:00 +15.7° С-В 2 - 4 км слабый ливневый дождь облачно 752 754 -0.2 93% +14.5° 300 м - - - -
12:00 +13.6° С-В 3 - 2 км умеренный или сильный ливневый дождь облачно 752 754 -0.9 92% +12.3° 300 м - - - -
09:00 +13° С-В 4 10 4 км дымка {ливневые осадки} облачно 753 755 -1.5 91% +11.6° 600 м 2 Влажная (без луж) +12° -
06:00 +12.1° С-В 4 - 10 км слабый ливневый дождь облачно 754 757 -1.3 89% +10.4° 1 км - - - -
03:00 +13.3° В 3 - 10 км - облачно 756 758 -1.4 81% +10.2° - - - - -
00:00 +13.9° В 1 - 10 км - облачно 757 759 -0.1 80% +10.6° более 2.5 км - - - -
Суббота, 23 Июня
Время местн. Темп Ветер Видим Явления Облачность нижн/средн/верх Атм. давл. Влжн Точка росы ВНГО R Сост. почвы Tg s
Напр Скр Прв ур.ст ур.м изм
21:00 +15.1° С-В 1 - 10 км - облачно 757 759 -1.1 70% +9.7° - 0 - - -
18:00 +16.7° Ю,Ю-З 1 - 10 км - облачно 758 760 -0.4 54% +7.3° 1 км - - - -
15:00 +16.2° Ю 3 - 20 км - облачно 759 761 -0.3 56% +7.4° 1 км - - - -
12:00 +15.4° Ю 4 - 20 км - облачно с прояснениями 759 761 +0.5 63% +8.3° 1 км - - - -
09:00 +15° Ю-З 1 - 20 км - переменная облачность 758 761 +0.4 64% +8.2° 1 км 0 Сухая (без трещин) +7° -
06:00 +10.5° З,Ю-З 1 - 10 км - переменная облачность 758 760 +1.4 82% +7.5° более 2.5 км - - - -
03:00 +8.8° З 2 - 10 км - ясно 757 759 +1.7 85% +6.4° более 2.5 км - - - -
00:00 +12.7° З 2 - 10 км - переменная облачность 755 757 +2 65% +6.4° более 2.5 км - - - -
Пятница, 22 Июня
Время местн. Темп Ветер Видим Явления Облачность нижн/средн/верх Атм. давл. Влжн Точка росы ВНГО R Сост. почвы Tg s
Напр Скр Прв ур.ст ур.м изм
21:00 +17.7° З,Ю-З 3 10 20 км - облачно с прояснениями 753 755 +1 46% +5.9° 1 км 0 - - -
18:00 +19.6° Ю-З 5 11 20 км - облачно с прояснениями 752 754 +0.8 47% +7.9° 1 км - - - -
15:00 +18.5° З 4 - 10 км - преимущественно облачно 751 753 +0.7 54% +9.1° 1 км - - - -
12:00 +15.6° З,Ю-З 2 12 10 км - облачно 750 753 +2.3 76% +11.3° 1.5 км - - - -
09:00 +18.6° Ю,Ю-З 3 10 10 км небо без изменений {ливневые осадки} преимущественно облачно 748 750 +0.2 80% +15.1° 1.5 км 0.4 Влажная (без луж) +15° -
06:00 +18.9° Ю 4 - 10 км - облачно с прояснениями 748 750 -1.2 72% +13.8° 1 км - - - -
03:00 +18.6° Ю 5 10 10 км - переменная облачность 749 751 -2.2 75% +14.1° - - - - -
00:00 +18.4° Ю 4 - 10 км - переменная облачность 751 754 -1.3 82% +15.2° - - - - -